createdAt,value
2023-01-21T00:01:06.946Z,20.98
2023-01-21T00:03:34.254Z,20.77
2023-01-21T00:06:01.494Z,20.98
2023-01-21T00:08:28.471Z,19.60
2023-01-21T00:10:55.645Z,19.58
2023-01-21T00:13:22.882Z,20.15
2023-01-21T00:15:49.938Z,16.80
2023-01-21T00:18:16.879Z,18.58
2023-01-21T00:20:46.169Z,19.05
2023-01-21T00:23:13.226Z,15.48
2023-01-21T00:25:40.038Z,15.55
2023-01-21T00:28:07.078Z,17.65
2023-01-21T00:30:34.100Z,16.33
2023-01-21T00:33:00.852Z,17.88
2023-01-21T00:35:27.793Z,17.23
2023-01-21T00:37:54.734Z,19.20
2023-01-21T00:40:21.855Z,16.75
2023-01-21T00:42:48.980Z,17.95
2023-01-21T00:45:15.919Z,17.05
2023-01-21T00:47:42.788Z,18.17
2023-01-21T00:50:10.823Z,18.33
2023-01-21T00:52:38.819Z,16.25
2023-01-21T00:55:06.773Z,17.58
2023-01-21T00:57:33.697Z,16.60
2023-01-21T01:00:00.787Z,16.85
2023-01-21T01:02:27.608Z,16.65
2023-01-21T01:04:54.556Z,16.63
2023-01-21T01:07:21.391Z,18.17
2023-01-21T01:09:48.169Z,20.27
2023-01-21T01:12:15.302Z,19.88
2023-01-21T01:14:42.067Z,17.15
2023-01-21T01:17:09.322Z,18.95
2023-01-21T01:19:36.169Z,17.02
2023-01-21T01:22:02.957Z,18.95
2023-01-21T01:24:30.062Z,17.10
2023-01-21T01:26:56.851Z,19.13
2023-01-21T01:29:23.612Z,20.88
2023-01-21T01:31:50.605Z,20.58
2023-01-21T01:34:17.505Z,19.92
2023-01-21T01:36:44.345Z,21.00
2023-01-21T01:39:11.531Z,19.85
2023-01-21T01:41:38.354Z,17.77
2023-01-21T01:44:55.484Z,20.75
2023-01-21T01:47:28.352Z,20.52
2023-01-21T01:49:55.199Z,19.60
2023-01-21T01:52:23.503Z,17.65
2023-01-21T01:54:54.058Z,18.10
2023-01-21T01:57:24.380Z,17.40
2023-01-21T01:59:51.790Z,17.77
2023-01-21T02:02:20.333Z,18.83
2023-01-21T02:05:03.693Z,15.73
2023-01-21T02:07:39.510Z,17.77
2023-01-21T02:10:12.536Z,17.83
2023-01-21T02:12:43.077Z,15.77
2023-01-21T02:15:10.711Z,18.02
2023-01-21T02:18:08.932Z,18.40
2023-01-21T02:20:55.683Z,16.85
2023-01-21T02:24:18.504Z,16.50
2023-01-21T02:27:43.696Z,16.05
2023-01-21T02:30:35.384Z,18.70
2023-01-21T02:33:33.149Z,17.95
2023-01-21T02:36:17.957Z,19.30
2023-01-21T02:39:25.245Z,20.75
2023-01-21T02:42:07.865Z,18.13
2023-01-21T02:44:54.602Z,18.20
2023-01-21T02:47:40.595Z,18.42
2023-01-21T02:50:27.403Z,18.40
2023-01-21T02:52:59.465Z,18.13
2023-01-21T02:55:34.516Z,17.38
2023-01-21T02:58:07.731Z,17.05
2023-01-21T03:00:51.191Z,18.25
2023-01-21T03:03:41.520Z,19.48
2023-01-21T03:06:22.502Z,16.70
2023-01-21T03:08:56.325Z,19.30
2023-01-21T03:11:23.850Z,18.30
2023-01-21T03:14:57.291Z,17.05
2023-01-21T03:17:34.799Z,17.25
2023-01-21T03:20:26.644Z,18.60
2023-01-21T03:23:02.651Z,17.77
2023-01-21T03:25:33.082Z,17.55
2023-01-21T03:28:04.056Z,17.33
2023-01-21T03:30:34.050Z,16.23
2023-01-21T03:33:02.494Z,16.35
2023-01-21T03:35:38.738Z,16.70
2023-01-21T03:38:26.907Z,16.25
2023-01-21T03:41:29.102Z,16.92
2023-01-21T03:43:55.894Z,15.45
2023-01-21T03:46:38.805Z,17.95
2023-01-21T03:49:29.730Z,18.00
2023-01-21T03:51:59.875Z,17.42
2023-01-21T03:54:27.047Z,16.98
2023-01-21T03:56:53.935Z,16.58
2023-01-21T03:59:20.747Z,16.48
2023-01-21T04:01:47.500Z,16.40
2023-01-21T04:04:14.621Z,17.50
2023-01-21T04:06:41.437Z,16.17
2023-01-21T04:09:08.267Z,17.67
2023-01-21T04:11:35.123Z,16.52
2023-01-21T04:14:02.002Z,16.25
2023-01-21T04:16:29.331Z,19.05
2023-01-21T04:18:56.494Z,17.67
2023-01-21T04:21:23.315Z,17.98
2023-01-21T04:23:50.088Z,17.40
2023-01-21T04:26:16.870Z,17.13
2023-01-21T04:28:43.826Z,17.00
2023-01-21T04:31:10.736Z,16.85
2023-01-21T04:33:37.584Z,17.13
2023-01-21T04:36:04.803Z,17.75
2023-01-21T04:38:31.969Z,19.15
2023-01-21T04:40:58.744Z,17.58
2023-01-21T04:43:25.576Z,18.15
2023-01-21T04:45:52.658Z,16.60
2023-01-21T04:48:19.480Z,16.27
2023-01-21T04:50:46.921Z,16.65
2023-01-21T04:53:14.252Z,16.35
2023-01-21T04:55:41.057Z,18.67
2023-01-21T04:58:08.190Z,16.92
2023-01-21T05:00:35.074Z,17.30
2023-01-21T05:03:01.916Z,18.30
2023-01-21T05:05:28.683Z,15.43
2023-01-21T05:07:55.832Z,16.85
2023-01-21T05:10:22.686Z,17.42
2023-01-21T05:12:49.805Z,16.00
2023-01-21T05:15:16.984Z,15.70
2023-01-21T05:17:43.788Z,16.15
2023-01-21T05:20:11.633Z,15.57
2023-01-21T05:22:38.667Z,17.63
2023-01-21T05:25:06.484Z,17.65
2023-01-21T05:27:33.394Z,16.50
2023-01-21T05:30:00.188Z,15.88
2023-01-21T05:32:26.989Z,15.90
2023-01-21T05:34:53.792Z,16.92
2023-01-21T05:37:20.820Z,18.52
2023-01-21T05:39:47.662Z,16.17
2023-01-21T05:42:14.557Z,18.50
2023-01-21T05:44:41.426Z,17.65
2023-01-21T05:47:08.983Z,16.92
2023-01-21T05:49:35.983Z,17.92
2023-01-21T05:52:02.753Z,16.60
2023-01-21T05:54:29.740Z,16.08
2023-01-21T05:56:56.744Z,16.55
2023-01-21T05:59:23.843Z,16.50
2023-01-21T06:01:50.640Z,17.08
2023-01-21T06:04:17.462Z,16.85
2023-01-21T06:06:44.356Z,17.20
2023-01-21T06:09:11.204Z,16.73
2023-01-21T06:11:38.327Z,17.38
2023-01-21T06:14:05.104Z,15.60
2023-01-21T06:16:31.903Z,16.85
2023-01-21T06:18:59.161Z,14.98
2023-01-21T06:21:25.942Z,17.45
2023-01-21T06:23:53.068Z,17.55
2023-01-21T06:26:19.931Z,16.95
2023-01-21T06:28:46.772Z,16.38
2023-01-21T06:31:13.621Z,17.05
2023-01-21T06:33:40.551Z,17.33
2023-01-21T06:36:07.998Z,17.02
2023-01-21T06:38:36.297Z,16.67
2023-01-21T06:41:04.178Z,16.48
2023-01-21T06:43:31.172Z,15.48
2023-01-21T06:45:58.130Z,16.55
2023-01-21T06:48:25.191Z,15.13
2023-01-21T06:50:52.089Z,16.80
2023-01-21T06:53:18.929Z,17.48
2023-01-21T06:55:47.566Z,18.08
2023-01-21T06:58:15.002Z,16.58
2023-01-21T07:00:42.416Z,17.25
2023-01-21T07:03:09.318Z,17.10
2023-01-21T07:05:36.148Z,18.83
2023-01-21T07:08:03.411Z,17.58
2023-01-21T07:10:30.263Z,17.10
2023-01-21T07:12:57.281Z,15.85
2023-01-21T07:15:25.047Z,18.00
2023-01-21T07:17:54.321Z,18.23
2023-01-21T07:20:22.752Z,19.45
2023-01-21T07:22:49.658Z,16.02
2023-01-21T07:25:17.025Z,20.42
2023-01-21T07:27:44.038Z,17.17
2023-01-21T07:30:19.324Z,17.58
2023-01-21T07:32:47.284Z,19.15
2023-01-21T07:35:15.323Z,18.13
2023-01-21T07:37:42.483Z,17.38
2023-01-21T07:40:10.049Z,17.48
2023-01-21T07:42:36.865Z,17.50
2023-01-21T07:45:04.131Z,18.55
2023-01-21T07:47:31.061Z,19.40
2023-01-21T07:49:57.859Z,24.27
2023-01-21T07:52:24.705Z,21.05
2023-01-21T07:54:51.484Z,19.77
2023-01-21T07:57:18.301Z,19.38
2023-01-21T07:59:45.189Z,21.27
2023-01-21T08:02:13.120Z,20.75
2023-01-21T08:04:39.973Z,20.38
2023-01-21T08:07:12.966Z,20.75
2023-01-21T08:09:40.458Z,18.38
2023-01-21T08:12:08.725Z,20.83
2023-01-21T08:14:35.896Z,20.00
2023-01-21T08:17:02.708Z,19.42
2023-01-21T08:19:29.649Z,24.20
2023-01-21T08:21:56.473Z,27.98
2023-01-21T08:24:23.224Z,30.30
2023-01-21T08:26:50.040Z,28.75
2023-01-21T08:29:17.073Z,30.33
2023-01-21T08:31:43.913Z,30.45
2023-01-21T08:34:10.996Z,30.90
2023-01-21T08:36:39.164Z,32.30
2023-01-21T08:39:06.677Z,30.38
2023-01-21T08:41:33.845Z,32.63
2023-01-21T08:44:00.754Z,30.52
2023-01-21T08:46:27.583Z,36.50
2023-01-21T08:48:54.465Z,32.75
2023-01-21T08:51:21.524Z,32.42
2023-01-21T08:53:52.236Z,32.13
2023-01-21T08:56:19.597Z,31.17
2023-01-21T08:58:46.635Z,30.08
2023-01-21T09:01:18.287Z,32.70
2023-01-21T09:03:45.476Z,27.10
2023-01-21T09:06:12.569Z,27.80
2023-01-21T09:08:39.524Z,27.08
2023-01-21T09:11:07.257Z,28.35
2023-01-21T09:13:38.054Z,28.75
2023-01-21T09:16:17.680Z,30.77
2023-01-21T09:18:45.133Z,26.45
2023-01-21T09:21:12.639Z,31.48
2023-01-21T09:23:40.565Z,31.95
2023-01-21T09:26:14.619Z,31.00
2023-01-21T09:28:43.592Z,29.30
2023-01-21T09:31:15.611Z,32.08
2023-01-21T09:33:46.315Z,33.22
2023-01-21T09:36:16.732Z,36.13
2023-01-21T09:38:45.685Z,33.03
2023-01-21T09:41:29.846Z,33.70
2023-01-21T09:44:13.640Z,25.02
2023-01-21T09:47:07.442Z,29.15
2023-01-21T09:49:47.552Z,27.98
2023-01-21T09:52:33.573Z,28.80
2023-01-21T09:55:02.667Z,30.27
2023-01-21T09:57:41.050Z,29.77
2023-01-21T10:00:54.589Z,27.23
2023-01-21T10:03:42.462Z,28.75
2023-01-21T10:06:33.658Z,26.60
2023-01-21T10:09:38.727Z,30.88
2023-01-21T10:12:42.889Z,32.10
2023-01-21T10:15:56.318Z,33.65
2023-01-21T10:18:30.695Z,34.47
2023-01-21T10:23:47.568Z,31.75
2023-01-21T10:26:15.155Z,34.70
2023-01-21T10:28:51.024Z,34.45
2023-01-21T10:31:25.193Z,36.50
2023-01-21T10:33:52.946Z,35.13
2023-01-21T10:36:47.200Z,35.50
2023-01-21T10:40:11.088Z,35.92
2023-01-21T10:42:53.902Z,37.75
2023-01-21T10:45:44.662Z,43.55
2023-01-21T10:48:18.045Z,46.85
2023-01-21T10:50:56.898Z,44.70
2023-01-21T10:53:53.202Z,46.95
2023-01-21T10:56:27.406Z,43.40
2023-01-21T10:59:24.408Z,40.90
2023-01-21T11:02:22.485Z,43.38
2023-01-21T11:04:50.061Z,44.83
2023-01-21T11:07:21.660Z,40.50
2023-01-21T11:09:48.939Z,41.30
2023-01-21T11:12:21.859Z,37.28
2023-01-21T11:14:58.144Z,39.13
2023-01-21T11:17:36.166Z,41.05
2023-01-21T11:20:16.073Z,39.45
2023-01-21T11:22:45.802Z,39.63
2023-01-21T11:25:37.846Z,37.88
2023-01-21T11:28:05.931Z,41.00
2023-01-21T11:30:50.734Z,38.05
2023-01-21T11:33:27.050Z,35.95
2023-01-21T11:35:55.590Z,38.75
2023-01-21T11:38:29.639Z,39.55
2023-01-21T11:41:22.519Z,39.72
2023-01-21T11:43:56.487Z,39.22
2023-01-21T11:46:34.618Z,37.95
2023-01-21T11:49:24.445Z,36.70
2023-01-21T11:52:06.900Z,36.42
2023-01-21T11:54:40.566Z,34.55
2023-01-21T11:57:22.843Z,35.10
2023-01-21T11:59:50.577Z,32.72
2023-01-21T12:02:48.555Z,33.55
2023-01-21T12:05:43.308Z,31.75
2023-01-21T12:08:24.367Z,28.17
2023-01-21T12:10:55.988Z,27.70
2023-01-21T12:13:40.836Z,25.90
2023-01-21T12:16:19.571Z,26.25
2023-01-21T12:19:23.726Z,26.70
2023-01-21T12:22:15.080Z,26.23
2023-01-21T12:25:14.391Z,28.63
2023-01-21T12:28:03.700Z,28.33
2023-01-21T12:30:48.636Z,28.30
2023-01-21T12:33:30.758Z,28.88
2023-01-21T12:36:38.261Z,29.65
2023-01-21T12:39:22.776Z,30.10
2023-01-21T12:42:02.554Z,28.88
2023-01-21T12:44:58.762Z,28.10
2023-01-21T12:47:50.882Z,26.02
2023-01-21T12:50:28.636Z,26.23
2023-01-21T12:53:21.162Z,26.33
2023-01-21T12:56:00.169Z,26.05
2023-01-21T12:58:33.665Z,25.77
2023-01-21T13:01:11.059Z,25.40
2023-01-21T13:03:50.738Z,24.63
2023-01-21T13:06:29.709Z,25.77
2023-01-21T13:09:34.316Z,25.98
2023-01-21T13:12:19.563Z,26.40
2023-01-21T13:15:00.106Z,25.65
2023-01-21T13:17:34.614Z,37.40
2023-01-21T13:20:14.098Z,35.65
2023-01-21T13:22:59.879Z,35.17
2023-01-21T13:25:46.835Z,35.75
2023-01-21T13:28:38.304Z,36.78
2023-01-21T13:31:14.830Z,38.10
2023-01-21T13:33:59.820Z,38.28
2023-01-21T13:36:43.168Z,39.45
2023-01-21T13:39:34.647Z,39.22
2023-01-21T13:42:16.991Z,37.33
2023-01-21T13:45:23.679Z,40.80
2023-01-21T13:48:12.048Z,38.15
2023-01-21T13:51:05.108Z,38.83
2023-01-21T13:54:06.220Z,36.08
2023-01-21T13:57:08.128Z,36.85
2023-01-21T13:59:53.667Z,38.17
2023-01-21T14:03:09.358Z,39.45
2023-01-21T14:05:47.159Z,31.30
2023-01-21T14:08:30.304Z,38.00
2023-01-21T14:11:32.097Z,43.20
2023-01-21T14:14:24.397Z,45.40
2023-01-21T14:17:15.192Z,42.92
2023-01-21T14:20:06.527Z,46.88
2023-01-21T14:22:55.124Z,43.85
2023-01-21T14:25:48.523Z,39.15
2023-01-21T14:28:28.557Z,37.03
2023-01-21T14:31:22.959Z,38.60
2023-01-21T14:33:59.611Z,36.95
2023-01-21T14:36:58.757Z,38.60
2023-01-21T14:39:41.105Z,43.50
2023-01-21T14:42:16.494Z,41.35
2023-01-21T14:44:49.370Z,43.55
2023-01-21T14:47:16.281Z,41.33
2023-01-21T14:49:50.401Z,41.55
2023-01-21T14:52:21.845Z,44.97
2023-01-21T14:54:49.195Z,43.15
2023-01-21T14:57:41.061Z,38.22
2023-01-21T15:00:24.463Z,43.25
2023-01-21T15:03:21.615Z,36.58
2023-01-21T15:05:54.232Z,36.78
2023-01-21T15:08:45.575Z,40.33
2023-01-21T15:11:24.206Z,42.17
2023-01-21T15:14:14.386Z,37.10
2023-01-21T15:16:44.239Z,37.03
2023-01-21T15:19:16.895Z,34.63
2023-01-21T15:21:45.624Z,43.50
2023-01-21T15:24:20.323Z,38.67
2023-01-21T15:30:27.184Z,30.23
2023-01-21T15:32:54.413Z,34.75
2023-01-21T15:35:30.080Z,42.47
2023-01-21T15:38:02.431Z,30.75
2023-01-21T15:40:41.356Z,33.15
2023-01-21T15:43:33.606Z,42.10
2023-01-21T15:47:08.642Z,36.38
2023-01-21T15:49:38.060Z,33.70
2023-01-21T15:52:30.747Z,33.80
2023-01-21T15:55:25.558Z,37.42
2023-01-21T15:58:43.565Z,26.13
2023-01-21T16:01:31.291Z,37.60
2023-01-21T16:04:16.139Z,39.22
2023-01-21T16:07:14.245Z,42.53
2023-01-21T16:10:21.701Z,40.22
2023-01-21T16:13:09.239Z,39.28
2023-01-21T16:16:14.857Z,39.55
2023-01-21T16:18:59.638Z,27.40
2023-01-21T16:21:40.371Z,35.67
2023-01-21T16:24:20.371Z,47.60
2023-01-21T16:26:47.305Z,41.08
2023-01-21T16:29:15.697Z,44.35
2023-01-21T16:32:00.635Z,40.97
2023-01-21T16:34:30.553Z,40.00
2023-01-21T16:36:58.192Z,36.88
2023-01-21T16:39:25.256Z,33.58
2023-01-21T16:42:04.576Z,37.58
2023-01-21T16:44:36.078Z,35.10
2023-01-21T16:47:03.750Z,42.97
2023-01-21T16:49:30.632Z,40.75
2023-01-21T16:52:00.994Z,49.15
2023-01-21T16:54:33.186Z,36.47
2023-01-21T16:57:02.812Z,37.72
2023-01-21T16:59:40.834Z,29.65
2023-01-21T17:02:25.112Z,32.15
2023-01-21T17:04:51.979Z,31.60
2023-01-21T17:07:44.688Z,44.45
2023-01-21T17:10:32.971Z,34.40
2023-01-21T17:13:04.034Z,43.35
2023-01-21T17:15:36.313Z,43.55
2023-01-21T17:18:06.545Z,36.85
2023-01-21T17:20:45.559Z,36.72
2023-01-21T17:23:22.395Z,48.95
2023-01-21T17:25:57.624Z,48.75
2023-01-21T17:28:39.052Z,44.92
2023-01-21T17:31:29.915Z,40.13
2023-01-21T17:34:20.335Z,43.15
2023-01-21T17:36:50.626Z,44.60
2023-01-21T17:39:48.651Z,48.80
2023-01-21T17:42:18.955Z,51.30
2023-01-21T17:44:48.910Z,48.15
2023-01-21T17:47:27.143Z,61.13
2023-01-21T17:50:03.679Z,63.05
2023-01-21T17:52:30.884Z,49.15
2023-01-21T17:55:26.647Z,50.38
2023-01-21T17:57:54.525Z,64.95
2023-01-21T18:00:45.813Z,49.63
2023-01-21T18:03:13.200Z,44.67
2023-01-21T18:05:41.481Z,49.50
2023-01-21T18:08:15.444Z,50.47
2023-01-21T18:10:43.420Z,47.67
2023-01-21T18:13:18.669Z,42.25
2023-01-21T18:15:46.679Z,39.45
2023-01-21T18:18:21.083Z,37.92
2023-01-21T18:20:48.080Z,37.92
2023-01-21T18:23:15.397Z,37.58
2023-01-21T18:25:42.956Z,33.47
2023-01-21T18:28:26.279Z,37.63
2023-01-21T18:30:57.342Z,35.25
2023-01-21T18:33:25.167Z,42.95
2023-01-21T18:35:53.282Z,42.55
2023-01-21T18:38:31.135Z,40.35
2023-01-21T18:40:59.059Z,40.88
2023-01-21T18:43:26.263Z,63.38
2023-01-21T18:45:54.558Z,51.28
2023-01-21T18:48:28.801Z,41.80
2023-01-21T18:50:56.091Z,43.78
2023-01-21T18:53:23.065Z,37.40
2023-01-21T18:55:55.609Z,39.42
2023-01-21T18:58:22.593Z,37.17
2023-01-21T19:00:49.675Z,35.85
2023-01-21T19:03:17.509Z,43.15
2023-01-21T19:05:47.765Z,48.92
2023-01-21T19:08:28.115Z,41.47
2023-01-21T19:10:55.678Z,45.88
2023-01-21T19:13:22.493Z,49.40
2023-01-21T19:15:49.708Z,42.25
2023-01-21T19:18:17.080Z,44.40
2023-01-21T19:20:44.137Z,45.95
2023-01-21T19:23:15.840Z,45.92
2023-01-21T19:25:48.504Z,53.38
2023-01-21T19:28:15.376Z,51.33
2023-01-21T19:30:45.274Z,47.72
2023-01-21T19:33:13.097Z,46.28
2023-01-21T19:35:44.441Z,41.22
2023-01-21T19:38:16.357Z,50.92
2023-01-21T19:40:43.477Z,52.10
2023-01-21T19:43:15.012Z,42.70
2023-01-21T19:45:42.316Z,40.90
2023-01-21T19:48:13.217Z,47.67
2023-01-21T19:50:40.640Z,41.70
2023-01-21T19:53:09.196Z,47.47
2023-01-21T19:55:37.241Z,46.58
2023-01-21T19:58:14.474Z,43.90
2023-01-21T20:00:41.600Z,39.85
2023-01-21T20:03:13.027Z,35.90
2023-01-21T20:05:40.568Z,38.03
2023-01-21T20:08:12.813Z,33.53
2023-01-21T20:10:40.013Z,34.20
2023-01-21T20:13:12.259Z,29.38
2023-01-21T20:15:41.849Z,29.98
2023-01-21T20:18:19.546Z,31.80
2023-01-21T20:20:46.455Z,33.17
2023-01-21T20:23:16.104Z,33.17
2023-01-21T20:25:44.909Z,32.28
2023-01-21T20:28:23.373Z,26.85
2023-01-21T20:30:52.281Z,25.95
2023-01-21T20:33:22.480Z,26.00
2023-01-21T20:35:53.848Z,27.17
2023-01-21T20:38:37.120Z,30.45
2023-01-21T20:41:06.034Z,29.27
2023-01-21T20:43:33.085Z,27.65
2023-01-21T20:46:04.065Z,28.60
2023-01-21T20:48:35.817Z,30.35
2023-01-21T20:51:03.573Z,33.30
2023-01-21T20:53:31.175Z,26.92
2023-01-21T20:56:01.392Z,30.55
2023-01-21T20:58:28.655Z,29.27
2023-01-21T21:00:55.825Z,32.80
2023-01-21T21:03:22.932Z,33.65
2023-01-21T21:05:49.847Z,40.85
2023-01-21T21:08:22.102Z,33.30
2023-01-21T21:10:50.977Z,36.20
2023-01-21T21:13:18.644Z,34.47
2023-01-21T21:15:46.765Z,40.58
2023-01-21T21:18:14.703Z,33.17
2023-01-21T21:20:42.454Z,39.63
2023-01-21T21:23:16.011Z,40.50
2023-01-21T21:25:48.975Z,42.40
2023-01-21T21:28:18.329Z,39.45
2023-01-21T21:30:45.773Z,34.30
2023-01-21T21:33:19.290Z,35.97
2023-01-21T21:35:47.050Z,36.75
2023-01-21T21:38:22.054Z,43.40
2023-01-21T21:40:53.275Z,36.60
2023-01-21T21:43:35.510Z,38.50
2023-01-21T21:46:28.348Z,36.35
2023-01-21T21:48:55.162Z,33.80
2023-01-21T21:51:23.110Z,31.60
2023-01-21T21:53:50.872Z,34.63
2023-01-21T21:56:21.356Z,39.13
2023-01-21T21:58:49.479Z,41.92
2023-01-21T22:01:23.580Z,38.28
2023-01-21T22:03:51.152Z,32.65
2023-01-21T22:06:21.809Z,34.10
2023-01-21T22:08:49.380Z,34.78
2023-01-21T22:11:19.816Z,38.38
2023-01-21T22:13:51.839Z,33.42
2023-01-21T22:16:28.280Z,34.88
2023-01-21T22:18:57.203Z,34.95
2023-01-21T22:21:28.278Z,30.50
2023-01-21T22:23:55.597Z,32.60
2023-01-21T22:26:25.643Z,31.85
2023-01-21T22:28:53.652Z,32.97
2023-01-21T22:31:27.486Z,31.27
2023-01-21T22:33:55.647Z,25.48
2023-01-21T22:36:25.653Z,33.00
2023-01-21T22:38:53.055Z,31.98
2023-01-21T22:41:22.769Z,34.72
2023-01-21T22:43:51.231Z,34.47
2023-01-21T22:46:30.515Z,35.38
2023-01-21T22:48:58.827Z,29.48
2023-01-21T22:51:26.437Z,35.97
2023-01-21T22:53:53.825Z,35.63
2023-01-21T22:56:39.830Z,34.45
2023-01-21T22:59:11.105Z,34.00
2023-01-21T23:01:38.504Z,32.45
2023-01-21T23:04:05.636Z,32.35
2023-01-21T23:06:32.557Z,34.05
2023-01-21T23:08:59.589Z,41.65
2023-01-21T23:11:26.489Z,39.85
2023-01-21T23:13:55.435Z,41.45
2023-01-21T23:16:22.951Z,41.38
2023-01-21T23:18:49.913Z,41.60
2023-01-21T23:21:22.669Z,38.88
2023-01-21T23:23:50.410Z,37.63
2023-01-21T23:26:19.408Z,36.92
2023-01-21T23:28:47.360Z,35.45
2023-01-21T23:31:17.761Z,32.97
2023-01-21T23:33:48.528Z,31.27
2023-01-21T23:36:15.347Z,33.33
2023-01-21T23:38:42.803Z,29.90
2023-01-21T23:41:17.173Z,33.35
2023-01-21T23:43:44.157Z,34.08
2023-01-21T23:46:16.729Z,37.63
2023-01-21T23:48:43.730Z,33.42
2023-01-21T23:51:13.853Z,35.97
2023-01-21T23:53:40.810Z,33.58
2023-01-21T23:56:15.089Z,34.72
2023-01-21T23:58:42.025Z,33.25
